Terminal Aerodrome Forecast
Issued by NWS Upton, NY

Current Version | Previous Version | Text Only | Print | Product List | Glossary On
Versions: 1 2 3 4 5 6 7 8 9 10 11 12 13 14 15 16 17 18 19 20 21 22 23 24 25 26 27
000
FTUS41 KOKX 280500 RRA
TAFISP
TAF
KISP 280543Z 2806/2906 VRB03KT P6SM FEW050
     FM280800 34008KT P6SM FEW050
     FM281300 33012G18KT P6SM SKC
     FM282100 32013KT P6SM FEW050
     FM290300 34008KT P6SM SKC=

USA.gov is the U.S. government's official web portal to all federal, state and local government web resources and services.